sensor_id;sensor_type;location;lat;lon;timestamp;P1;durP1;ratioP1;P2;durP2;ratioP2
62687;SDS011;48752;51.056;17.056;2022-08-04T00:00:21;9.38;;;6.60;;
62687;SDS011;48752;51.056;17.056;2022-08-04T00:05:27;10.98;;;7.03;;
62687;SDS011;48752;51.056;17.056;2022-08-04T00:10:23;9.15;;;7.15;;
62687;SDS011;48752;51.056;17.056;2022-08-04T00:12:50;9.98;;;6.60;;
62687;SDS011;48752;51.056;17.056;2022-08-04T00:15:17;8.05;;;7.15;;
62687;SDS011;48752;51.056;17.056;2022-08-04T00:17:48;9.80;;;7.50;;
62687;SDS011;48752;51.056;17.056;2022-08-04T00:20:23;9.37;;;7.13;;
62687;SDS011;48752;51.056;17.056;2022-08-04T00:22:54;9.98;;;7.90;;
62687;SDS011;48752;51.056;17.056;2022-08-04T00:25:19;7.80;;;6.88;;
62687;SDS011;48752;51.056;17.056;2022-08-04T00:27:45;10.70;;;8.02;;
62687;SDS011;48752;51.056;17.056;2022-08-04T00:30:11;11.68;;;7.72;;
62687;SDS011;48752;51.056;17.056;2022-08-04T00:32:38;11.07;;;7.03;;
62687;SDS011;48752;51.056;17.056;2022-08-04T00:35:04;9.25;;;7.50;;
62687;SDS011;48752;51.056;17.056;2022-08-04T00:37:30;11.90;;;7.88;;
62687;SDS011;48752;51.056;17.056;2022-08-04T00:39:57;11.63;;;7.43;;
62687;SDS011;48752;51.056;17.056;2022-08-04T00:52:46;9.18;;;8.07;;
62687;SDS011;48752;51.056;17.056;2022-08-04T01:00:22;8.75;;;7.50;;
62687;SDS011;48752;51.056;17.056;2022-08-04T01:08:17;8.18;;;7.25;;
62687;SDS011;48752;51.056;17.056;2022-08-04T01:11:25;16.20;;;8.05;;
62687;SDS011;48752;51.056;17.056;2022-08-04T01:14:43;12.15;;;7.55;;
62687;SDS011;48752;51.056;17.056;2022-08-04T01:17:47;10.25;;;7.20;;
62687;SDS011;48752;51.056;17.056;2022-08-04T01:19:53;10.77;;;7.25;;
62687;SDS011;48752;51.056;17.056;2022-08-04T01:31:01;9.05;;;7.90;;
62687;SDS011;48752;51.056;17.056;2022-08-04T01:33:30;8.15;;;6.90;;
62687;SDS011;48752;51.056;17.056;2022-08-04T01:36:04;9.13;;;6.97;;
62687;SDS011;48752;51.056;17.056;2022-08-04T01:41:02;21.15;;;8.57;;
62687;SDS011;48752;51.056;17.056;2022-08-04T01:43:29;9.10;;;7.85;;
62687;SDS011;48752;51.056;17.056;2022-08-04T01:45:57;12.10;;;7.95;;
62687;SDS011;48752;51.056;17.056;2022-08-04T01:48:25;9.45;;;7.60;;
62687;SDS011;48752;51.056;17.056;2022-08-04T01:50:51;11.68;;;7.45;;
62687;SDS011;48752;51.056;17.056;2022-08-04T01:53:18;12.73;;;7.88;;
62687;SDS011;48752;51.056;17.056;2022-08-04T01:55:45;9.35;;;7.88;;
62687;SDS011;48752;51.056;17.056;2022-08-04T01:58:11;9.25;;;7.13;;
62687;SDS011;48752;51.056;17.056;2022-08-04T02:00:40;12.70;;;8.20;;
62687;SDS011;48752;51.056;17.056;2022-08-04T02:03:14;10.13;;;7.80;;
62687;SDS011;48752;51.056;17.056;2022-08-04T02:05:41;9.57;;;8.25;;
62687;SDS011;48752;51.056;17.056;2022-08-04T02:08:19;7.85;;;7.05;;
62687;SDS011;48752;51.056;17.056;2022-08-04T02:16:10;9.88;;;8.45;;
62687;SDS011;48752;51.056;17.056;2022-08-04T02:19:01;10.40;;;8.50;;
62687;SDS011;48752;51.056;17.056;2022-08-04T02:21:27;9.68;;;8.07;;
62687;SDS011;48752;51.056;17.056;2022-08-04T02:23:57;10.02;;;7.95;;
62687;SDS011;48752;51.056;17.056;2022-08-04T02:26:33;12.75;;;8.82;;
62687;SDS011;48752;51.056;17.056;2022-08-04T02:30:01;11.55;;;8.18;;
62687;SDS011;48752;51.056;17.056;2022-08-04T02:32:13;10.35;;;8.07;;
62687;SDS011;48752;51.056;17.056;2022-08-04T02:34:46;12.80;;;7.70;;
62687;SDS011;48752;51.056;17.056;2022-08-04T02:37:17;10.40;;;9.30;;
62687;SDS011;48752;51.056;17.056;2022-08-04T02:39:43;9.50;;;7.63;;
62687;SDS011;48752;51.056;17.056;2022-08-04T02:42:09;11.18;;;8.25;;
62687;SDS011;48752;51.056;17.056;2022-08-04T02:44:36;10.30;;;7.93;;
62687;SDS011;48752;51.056;17.056;2022-08-04T02:47:03;13.32;;;8.07;;
62687;SDS011;48752;51.056;17.056;2022-08-04T02:49:28;10.15;;;8.40;;
62687;SDS011;48752;51.056;17.056;2022-08-04T02:51:55;12.27;;;8.73;;
62687;SDS011;48752;51.056;17.056;2022-08-04T02:54:24;10.48;;;8.63;;
62687;SDS011;48752;51.056;17.056;2022-08-04T02:59:19;12.48;;;8.38;;
62687;SDS011;48752;51.056;17.056;2022-08-04T03:01:46;11.88;;;8.95;;
62687;SDS011;48752;51.056;17.056;2022-08-04T03:51:42;10.95;;;9.20;;
62687;SDS011;48752;51.056;17.056;2022-08-04T04:18:56;13.90;;;10.40;;
62687;SDS011;48752;51.056;17.056;2022-08-04T04:32:41;13.75;;;10.07;;
62687;SDS011;48752;51.056;17.056;2022-08-04T04:44:13;13.88;;;9.82;;
62687;SDS011;48752;51.056;17.056;2022-08-04T04:46:44;12.88;;;10.57;;
62687;SDS011;48752;51.056;17.056;2022-08-04T04:54:38;11.82;;;10.32;;
62687;SDS011;48752;51.056;17.056;2022-08-04T04:57:18;12.80;;;10.38;;
62687;SDS011;48752;51.056;17.056;2022-08-04T04:59:55;14.25;;;10.63;;
62687;SDS011;48752;51.056;17.056;2022-08-04T05:13:14;11.35;;;9.50;;
62687;SDS011;48752;51.056;17.056;2022-08-04T05:16:05;11.77;;;9.95;;
62687;SDS011;48752;51.056;17.056;2022-08-04T05:18:35;17.08;;;10.30;;
62687;SDS011;48752;51.056;17.056;2022-08-04T05:21:06;16.15;;;9.65;;
62687;SDS011;48752;51.056;17.056;2022-08-04T05:23:33;12.40;;;8.80;;
62687;SDS011;48752;51.056;17.056;2022-08-04T05:26:06;12.38;;;9.13;;
62687;SDS011;48752;51.056;17.056;2022-08-04T05:28:37;15.07;;;9.70;;
62687;SDS011;48752;51.056;17.056;2022-08-04T05:31:05;12.63;;;9.90;;
62687;SDS011;48752;51.056;17.056;2022-08-04T05:33:52;15.30;;;8.85;;
62687;SDS011;48752;51.056;17.056;2022-08-04T05:36:19;22.88;;;10.65;;
62687;SDS011;48752;51.056;17.056;2022-08-04T05:38:48;14.40;;;9.07;;
62687;SDS011;48752;51.056;17.056;2022-08-04T05:41:15;12.25;;;9.10;;
62687;SDS011;48752;51.056;17.056;2022-08-04T05:43:42;12.18;;;9.60;;
62687;SDS011;48752;51.056;17.056;2022-08-04T05:46:08;13.30;;;9.65;;
62687;SDS011;48752;51.056;17.056;2022-08-04T05:48:35;10.35;;;8.13;;
62687;SDS011;48752;51.056;17.056;2022-08-04T05:51:02;14.48;;;8.40;;
62687;SDS011;48752;51.056;17.056;2022-08-04T05:53:28;14.65;;;8.55;;
62687;SDS011;48752;51.056;17.056;2022-08-04T05:55:55;13.80;;;8.60;;
62687;SDS011;48752;51.056;17.056;2022-08-04T05:58:20;10.98;;;9.10;;
62687;SDS011;48752;51.056;17.056;2022-08-04T06:00:46;12.80;;;8.52;;
62687;SDS011;48752;51.056;17.056;2022-08-04T06:03:12;10.43;;;8.45;;
62687;SDS011;48752;51.056;17.056;2022-08-04T06:05:38;13.10;;;8.18;;
62687;SDS011;48752;51.056;17.056;2022-08-04T06:08:04;12.93;;;7.85;;
62687;SDS011;48752;51.056;17.056;2022-08-04T06:10:30;8.63;;;7.22;;
62687;SDS011;48752;51.056;17.056;2022-08-04T06:13:05;11.48;;;7.95;;
62687;SDS011;48752;51.056;17.056;2022-08-04T06:15:34;13.50;;;8.07;;
62687;SDS011;48752;51.056;17.056;2022-08-04T06:18:02;10.45;;;7.28;;
62687;SDS011;48752;51.056;17.056;2022-08-04T06:20:29;10.57;;;7.70;;
62687;SDS011;48752;51.056;17.056;2022-08-04T06:23:00;14.38;;;7.53;;
62687;SDS011;48752;51.056;17.056;2022-08-04T06:25:38;13.02;;;7.82;;
62687;SDS011;48752;51.056;17.056;2022-08-04T06:28:07;9.30;;;6.65;;
62687;SDS011;48752;51.056;17.056;2022-08-04T06:30:33;9.05;;;6.85;;
62687;SDS011;48752;51.056;17.056;2022-08-04T06:33:00;11.88;;;7.15;;
62687;SDS011;48752;51.056;17.056;2022-08-04T06:35:27;10.63;;;6.38;;
62687;SDS011;48752;51.056;17.056;2022-08-04T06:37:54;12.77;;;7.25;;
62687;SDS011;48752;51.056;17.056;2022-08-04T06:40:21;10.52;;;6.60;;
62687;SDS011;48752;51.056;17.056;2022-08-04T06:42:48;16.17;;;6.47;;
62687;SDS011;48752;51.056;17.056;2022-08-04T06:45:13;15.07;;;6.80;;
62687;SDS011;48752;51.056;17.056;2022-08-04T06:47:40;22.60;;;5.75;;
62687;SDS011;48752;51.056;17.056;2022-08-04T06:50:07;13.63;;;6.20;;
62687;SDS011;48752;51.056;17.056;2022-08-04T06:52:33;16.77;;;5.60;;
62687;SDS011;48752;51.056;17.056;2022-08-04T06:54:59;7.60;;;5.20;;
62687;SDS011;48752;51.056;17.056;2022-08-04T06:57:26;10.95;;;6.63;;
62687;SDS011;48752;51.056;17.056;2022-08-04T06:59:54;13.07;;;5.70;;
62687;SDS011;48752;51.056;17.056;2022-08-04T07:02:25;8.03;;;4.90;;
62687;SDS011;48752;51.056;17.056;2022-08-04T07:04:52;5.80;;;4.93;;
62687;SDS011;48752;51.056;17.056;2022-08-04T07:07:18;22.88;;;5.68;;
62687;SDS011;48752;51.056;17.056;2022-08-04T07:09:44;14.45;;;5.07;;
62687;SDS011;48752;51.056;17.056;2022-08-04T07:12:10;8.18;;;4.78;;
62687;SDS011;48752;51.056;17.056;2022-08-04T07:14:35;13.50;;;5.22;;
62687;SDS011;48752;51.056;17.056;2022-08-04T07:17:04;12.60;;;4.90;;
62687;SDS011;48752;51.056;17.056;2022-08-04T07:19:32;13.25;;;4.10;;
62687;SDS011;48752;51.056;17.056;2022-08-04T07:21:59;11.18;;;4.80;;
62687;SDS011;48752;51.056;17.056;2022-08-04T07:24:32;8.63;;;4.20;;
62687;SDS011;48752;51.056;17.056;2022-08-04T07:26:59;12.80;;;4.70;;
62687;SDS011;48752;51.056;17.056;2022-08-04T07:29:26;7.70;;;4.32;;
62687;SDS011;48752;51.056;17.056;2022-08-04T07:31:52;7.53;;;4.57;;
62687;SDS011;48752;51.056;17.056;2022-08-04T07:34:19;7.00;;;3.95;;
62687;SDS011;48752;51.056;17.056;2022-08-04T07:36:45;11.43;;;4.85;;
62687;SDS011;48752;51.056;17.056;2022-08-04T07:39:12;20.55;;;4.65;;
62687;SDS011;48752;51.056;17.056;2022-08-04T07:41:38;8.70;;;4.20;;
62687;SDS011;48752;51.056;17.056;2022-08-04T07:44:06;10.45;;;4.47;;
62687;SDS011;48752;51.056;17.056;2022-08-04T07:46:33;12.40;;;4.68;;
62687;SDS011;48752;51.056;17.056;2022-08-04T07:48:59;17.48;;;5.68;;
62687;SDS011;48752;51.056;17.056;2022-08-04T07:51:25;9.60;;;4.15;;
62687;SDS011;48752;51.056;17.056;2022-08-04T07:53:51;7.07;;;3.63;;
62687;SDS011;48752;51.056;17.056;2022-08-04T07:56:16;5.72;;;3.70;;
62687;SDS011;48752;51.056;17.056;2022-08-04T07:58:42;6.68;;;4.30;;
62687;SDS011;48752;51.056;17.056;2022-08-04T08:01:08;8.55;;;4.00;;
62687;SDS011;48752;51.056;17.056;2022-08-04T08:03:33;6.45;;;4.30;;
62687;SDS011;48752;51.056;17.056;2022-08-04T08:05:59;5.65;;;3.90;;
62687;SDS011;48752;51.056;17.056;2022-08-04T08:08:25;9.00;;;4.30;;
62687;SDS011;48752;51.056;17.056;2022-08-04T08:10:51;13.05;;;4.70;;
62687;SDS011;48752;51.056;17.056;2022-08-04T08:13:17;4.30;;;3.95;;
62687;SDS011;48752;51.056;17.056;2022-08-04T08:15:44;6.32;;;4.00;;
62687;SDS011;48752;51.056;17.056;2022-08-04T08:18:11;8.77;;;4.38;;
62687;SDS011;48752;51.056;17.056;2022-08-04T08:20:36;4.95;;;4.35;;
62687;SDS011;48752;51.056;17.056;2022-08-04T08:23:02;4.70;;;3.90;;
62687;SDS011;48752;51.056;17.056;2022-08-04T08:25:31;11.25;;;4.47;;
62687;SDS011;48752;51.056;17.056;2022-08-04T08:27:57;4.22;;;3.83;;
62687;SDS011;48752;51.056;17.056;2022-08-04T08:30:23;6.40;;;4.80;;
62687;SDS011;48752;51.056;17.056;2022-08-04T08:32:49;6.50;;;4.50;;
62687;SDS011;48752;51.056;17.056;2022-08-04T08:35:14;4.95;;;4.03;;
62687;SDS011;48752;51.056;17.056;2022-08-04T08:37:44;7.10;;;4.65;;
62687;SDS011;48752;51.056;17.056;2022-08-04T08:43:15;5.45;;;4.32;;
62687;SDS011;48752;51.056;17.056;2022-08-04T09:04:52;9.55;;;4.60;;
62687;SDS011;48752;51.056;17.056;2022-08-04T09:15:35;33.38;;;8.32;;
62687;SDS011;48752;51.056;17.056;2022-08-04T09:18:06;16.35;;;6.05;;
62687;SDS011;48752;51.056;17.056;2022-08-04T09:23:12;12.52;;;5.50;;
62687;SDS011;48752;51.056;17.056;2022-08-04T09:25:41;7.05;;;5.70;;
62687;SDS011;48752;51.056;17.056;2022-08-04T09:28:20;19.67;;;6.45;;
62687;SDS011;48752;51.056;17.056;2022-08-04T09:30:51;7.13;;;4.82;;
62687;SDS011;48752;51.056;17.056;2022-08-04T09:33:34;9.52;;;6.88;;
62687;SDS011;48752;51.056;17.056;2022-08-04T09:46:28;5.90;;;5.25;;
62687;SDS011;48752;51.056;17.056;2022-08-04T09:49:12;8.10;;;6.18;;
62687;SDS011;48752;51.056;17.056;2022-08-04T09:59:53;5.85;;;4.40;;
62687;SDS011;48752;51.056;17.056;2022-08-04T10:02:23;6.03;;;4.38;;
62687;SDS011;48752;51.056;17.056;2022-08-04T10:04:48;10.73;;;4.57;;
62687;SDS011;48752;51.056;17.056;2022-08-04T10:07:23;6.45;;;5.43;;
62687;SDS011;48752;51.056;17.056;2022-08-04T10:12:34;14.38;;;5.47;;
62687;SDS011;48752;51.056;17.056;2022-08-04T10:15:08;6.30;;;5.05;;
62687;SDS011;48752;51.056;17.056;2022-08-04T10:28:43;11.70;;;4.70;;
62687;SDS011;48752;51.056;17.056;2022-08-04T10:31:12;9.20;;;4.63;;
62687;SDS011;48752;51.056;17.056;2022-08-04T10:33:44;5.78;;;3.90;;
62687;SDS011;48752;51.056;17.056;2022-08-04T10:36:15;5.05;;;3.85;;
62687;SDS011;48752;51.056;17.056;2022-08-04T10:43:47;9.80;;;4.03;;
62687;SDS011;48752;51.056;17.056;2022-08-04T10:46:25;7.63;;;4.68;;
62687;SDS011;48752;51.056;17.056;2022-08-04T10:54:02;7.22;;;4.38;;
62687;SDS011;48752;51.056;17.056;2022-08-04T10:56:40;7.43;;;4.10;;
62687;SDS011;48752;51.056;17.056;2022-08-04T10:59:12;14.63;;;6.55;;
62687;SDS011;48752;51.056;17.056;2022-08-04T11:01:43;4.60;;;3.90;;
62687;SDS011;48752;51.056;17.056;2022-08-04T11:04:25;5.40;;;4.93;;
62687;SDS011;48752;51.056;17.056;2022-08-04T11:06:56;5.40;;;4.32;;
62687;SDS011;48752;51.056;17.056;2022-08-04T11:09:22;11.80;;;5.47;;
62687;SDS011;48752;51.056;17.056;2022-08-04T11:17:20;5.40;;;4.03;;
62687;SDS011;48752;51.056;17.056;2022-08-04T11:22:32;4.35;;;3.58;;
62687;SDS011;48752;51.056;17.056;2022-08-04T11:30:08;4.35;;;3.95;;
62687;SDS011;48752;51.056;17.056;2022-08-04T11:32:45;5.28;;;4.78;;
62687;SDS011;48752;51.056;17.056;2022-08-04T11:35:37;8.60;;;4.32;;
62687;SDS011;48752;51.056;17.056;2022-08-04T11:40:44;24.40;;;6.28;;
62687;SDS011;48752;51.056;17.056;2022-08-04T11:43:25;4.72;;;3.80;;
62687;SDS011;48752;51.056;17.056;2022-08-04T11:45:57;23.75;;;7.22;;
62687;SDS011;48752;51.056;17.056;2022-08-04T11:48:28;5.28;;;3.92;;
62687;SDS011;48752;51.056;17.056;2022-08-04T11:51:05;11.55;;;6.45;;
62687;SDS011;48752;51.056;17.056;2022-08-04T11:53:33;4.70;;;3.95;;
62687;SDS011;48752;51.056;17.056;2022-08-04T11:56:01;5.28;;;4.10;;
62687;SDS011;48752;51.056;17.056;2022-08-04T11:58:27;41.10;;;9.10;;
62687;SDS011;48752;51.056;17.056;2022-08-04T12:06:19;17.58;;;5.38;;
62687;SDS011;48752;51.056;17.056;2022-08-04T12:12:21;9.95;;;4.18;;
62687;SDS011;48752;51.056;17.056;2022-08-04T12:17:30;9.65;;;4.78;;
62687;SDS011;48752;51.056;17.056;2022-08-04T12:20:02;7.10;;;4.47;;
62687;SDS011;48752;51.056;17.056;2022-08-04T12:22:32;11.10;;;4.90;;
62687;SDS011;48752;51.056;17.056;2022-08-04T12:27:30;8.02;;;4.30;;
62687;SDS011;48752;51.056;17.056;2022-08-04T12:29:57;4.00;;;3.55;;
62687;SDS011;48752;51.056;17.056;2022-08-04T12:32:58;5.38;;;4.15;;
62687;SDS011;48752;51.056;17.056;2022-08-04T12:35:30;5.93;;;4.38;;
62687;SDS011;48752;51.056;17.056;2022-08-04T12:38:06;5.55;;;4.22;;
62687;SDS011;48752;51.056;17.056;2022-08-04T12:40:49;12.70;;;4.95;;
62687;SDS011;48752;51.056;17.056;2022-08-04T12:45:50;12.63;;;4.70;;
62687;SDS011;48752;51.056;17.056;2022-08-04T12:48:17;12.23;;;5.53;;
62687;SDS011;48752;51.056;17.056;2022-08-04T12:50:47;5.15;;;4.50;;
62687;SDS011;48752;51.056;17.056;2022-08-04T12:53:15;10.85;;;4.43;;
62687;SDS011;48752;51.056;17.056;2022-08-04T12:55:44;7.63;;;4.10;;
62687;SDS011;48752;51.056;17.056;2022-08-04T12:58:20;14.45;;;4.20;;
62687;SDS011;48752;51.056;17.056;2022-08-04T13:00:58;5.35;;;3.90;;
62687;SDS011;48752;51.056;17.056;2022-08-04T13:03:27;5.53;;;3.45;;
62687;SDS011;48752;51.056;17.056;2022-08-04T13:05:54;3.53;;;3.22;;
62687;SDS011;48752;51.056;17.056;2022-08-04T13:08:22;13.45;;;4.53;;
62687;SDS011;48752;51.056;17.056;2022-08-04T13:10:49;8.77;;;4.38;;
62687;SDS011;48752;51.056;17.056;2022-08-04T13:13:17;6.38;;;3.88;;
62687;SDS011;48752;51.056;17.056;2022-08-04T13:15:54;14.80;;;4.65;;
62687;SDS011;48752;51.056;17.056;2022-08-04T13:18:21;25.17;;;5.82;;
62687;SDS011;48752;51.056;17.056;2022-08-04T13:20:46;7.05;;;4.35;;
62687;SDS011;48752;51.056;17.056;2022-08-04T13:23:13;5.60;;;3.95;;
62687;SDS011;48752;51.056;17.056;2022-08-04T13:25:41;18.15;;;5.15;;
62687;SDS011;48752;51.056;17.056;2022-08-04T13:28:12;6.68;;;4.70;;
62687;SDS011;48752;51.056;17.056;2022-08-04T13:30:39;8.27;;;4.47;;
62687;SDS011;48752;51.056;17.056;2022-08-04T13:33:08;4.75;;;4.30;;
62687;SDS011;48752;51.056;17.056;2022-08-04T13:35:34;6.15;;;4.20;;
62687;SDS011;48752;51.056;17.056;2022-08-04T13:38:01;13.20;;;4.78;;
62687;SDS011;48752;51.056;17.056;2022-08-04T13:40:27;6.28;;;3.72;;
62687;SDS011;48752;51.056;17.056;2022-08-04T13:42:53;6.32;;;3.65;;
62687;SDS011;48752;51.056;17.056;2022-08-04T13:45:21;13.48;;;4.50;;
62687;SDS011;48752;51.056;17.056;2022-08-04T13:47:47;8.23;;;4.38;;
62687;SDS011;48752;51.056;17.056;2022-08-04T13:50:19;6.70;;;4.50;;
62687;SDS011;48752;51.056;17.056;2022-08-04T13:52:49;4.43;;;4.00;;
62687;SDS011;48752;51.056;17.056;2022-08-04T14:06:04;12.77;;;5.88;;
62687;SDS011;48752;51.056;17.056;2022-08-04T14:08:31;13.32;;;5.38;;
62687;SDS011;48752;51.056;17.056;2022-08-04T14:11:00;20.10;;;5.10;;
62687;SDS011;48752;51.056;17.056;2022-08-04T14:13:32;5.90;;;3.70;;
62687;SDS011;48752;51.056;17.056;2022-08-04T14:15:58;14.60;;;5.38;;
62687;SDS011;48752;51.056;17.056;2022-08-04T14:18:27;25.85;;;7.13;;
62687;SDS011;48752;51.056;17.056;2022-08-04T14:21:07;13.07;;;4.53;;
62687;SDS011;48752;51.056;17.056;2022-08-04T14:26:33;17.08;;;5.07;;
62687;SDS011;48752;51.056;17.056;2022-08-04T14:29:11;11.40;;;4.93;;
62687;SDS011;48752;51.056;17.056;2022-08-04T14:31:41;19.40;;;5.93;;
62687;SDS011;48752;51.056;17.056;2022-08-04T14:34:07;22.48;;;6.03;;
62687;SDS011;48752;51.056;17.056;2022-08-04T14:36:39;5.45;;;3.70;;
62687;SDS011;48752;51.056;17.056;2022-08-04T14:39:06;8.82;;;5.22;;
62687;SDS011;48752;51.056;17.056;2022-08-04T14:41:48;11.15;;;4.65;;
62687;SDS011;48752;51.056;17.056;2022-08-04T14:44:15;8.07;;;4.72;;
62687;SDS011;48752;51.056;17.056;2022-08-04T14:46:50;9.32;;;4.78;;
62687;SDS011;48752;51.056;17.056;2022-08-04T14:49:16;5.18;;;4.30;;
62687;SDS011;48752;51.056;17.056;2022-08-04T14:51:43;5.30;;;4.80;;
62687;SDS011;48752;51.056;17.056;2022-08-04T14:54:10;8.38;;;4.53;;
62687;SDS011;48752;51.056;17.056;2022-08-04T14:56:38;4.90;;;3.85;;
62687;SDS011;48752;51.056;17.056;2022-08-04T14:59:06;6.18;;;4.13;;
62687;SDS011;48752;51.056;17.056;2022-08-04T15:01:33;7.22;;;4.80;;
62687;SDS011;48752;51.056;17.056;2022-08-04T15:04:00;5.65;;;4.63;;
62687;SDS011;48752;51.056;17.056;2022-08-04T15:06:28;4.70;;;4.30;;
62687;SDS011;48752;51.056;17.056;2022-08-04T15:08:55;5.45;;;4.15;;
62687;SDS011;48752;51.056;17.056;2022-08-04T15:11:22;9.10;;;4.90;;
62687;SDS011;48752;51.056;17.056;2022-08-04T15:13:48;7.47;;;4.72;;
62687;SDS011;48752;51.056;17.056;2022-08-04T15:16:13;7.32;;;4.60;;
62687;SDS011;48752;51.056;17.056;2022-08-04T15:18:39;6.18;;;4.00;;
62687;SDS011;48752;51.056;17.056;2022-08-04T15:21:05;4.47;;;4.07;;
62687;SDS011;48752;51.056;17.056;2022-08-04T15:23:32;5.45;;;4.00;;
62687;SDS011;48752;51.056;17.056;2022-08-04T15:25:59;6.18;;;3.97;;
62687;SDS011;48752;51.056;17.056;2022-08-04T15:28:27;5.10;;;4.57;;
62687;SDS011;48752;51.056;17.056;2022-08-04T15:30:53;5.07;;;4.57;;
62687;SDS011;48752;51.056;17.056;2022-08-04T15:33:19;7.18;;;4.35;;
62687;SDS011;48752;51.056;17.056;2022-08-04T15:35:51;8.73;;;5.38;;
62687;SDS011;48752;51.056;17.056;2022-08-04T15:38:30;5.88;;;5.22;;
62687;SDS011;48752;51.056;17.056;2022-08-04T15:41:13;6.20;;;4.93;;
62687;SDS011;48752;51.056;17.056;2022-08-04T15:46:36;6.47;;;5.45;;
62687;SDS011;48752;51.056;17.056;2022-08-04T15:49:19;8.60;;;4.78;;
62687;SDS011;48752;51.056;17.056;2022-08-04T15:51:45;7.43;;;5.22;;
62687;SDS011;48752;51.056;17.056;2022-08-04T15:56:43;9.20;;;5.40;;
62687;SDS011;48752;51.056;17.056;2022-08-04T15:59:11;7.07;;;5.50;;
62687;SDS011;48752;51.056;17.056;2022-08-04T16:01:36;5.35;;;4.85;;
62687;SDS011;48752;51.056;17.056;2022-08-04T16:04:18;9.20;;;5.38;;
62687;SDS011;48752;51.056;17.056;2022-08-04T16:06:45;21.15;;;6.03;;
62687;SDS011;48752;51.056;17.056;2022-08-04T16:09:19;5.90;;;4.72;;
62687;SDS011;48752;51.056;17.056;2022-08-04T16:11:47;6.10;;;4.60;;
62687;SDS011;48752;51.056;17.056;2022-08-04T16:14:13;5.43;;;4.57;;
62687;SDS011;48752;51.056;17.056;2022-08-04T16:21:48;6.05;;;5.03;;
62687;SDS011;48752;51.056;17.056;2022-08-04T16:26:44;8.10;;;5.15;;
62687;SDS011;48752;51.056;17.056;2022-08-04T16:29:30;8.45;;;4.82;;
62687;SDS011;48752;51.056;17.056;2022-08-04T16:34:33;9.60;;;4.80;;
62687;SDS011;48752;51.056;17.056;2022-08-04T16:37:00;5.53;;;4.68;;
62687;SDS011;48752;51.056;17.056;2022-08-04T16:39:27;6.45;;;5.03;;
62687;SDS011;48752;51.056;17.056;2022-08-04T16:41:53;6.60;;;5.30;;
62687;SDS011;48752;51.056;17.056;2022-08-04T16:44:29;9.43;;;4.63;;
62687;SDS011;48752;51.056;17.056;2022-08-04T16:47:00;5.60;;;5.00;;
62687;SDS011;48752;51.056;17.056;2022-08-04T16:49:27;10.80;;;5.65;;
62687;SDS011;48752;51.056;17.056;2022-08-04T16:51:53;7.32;;;5.18;;
62687;SDS011;48752;51.056;17.056;2022-08-04T16:54:22;7.03;;;5.18;;
62687;SDS011;48752;51.056;17.056;2022-08-04T16:56:48;9.77;;;6.00;;
62687;SDS011;48752;51.056;17.056;2022-08-04T16:59:13;7.97;;;5.75;;
62687;SDS011;48752;51.056;17.056;2022-08-04T17:01:46;15.55;;;5.57;;
62687;SDS011;48752;51.056;17.056;2022-08-04T17:04:14;9.75;;;5.07;;
62687;SDS011;48752;51.056;17.056;2022-08-04T17:06:41;6.75;;;5.57;;
62687;SDS011;48752;51.056;17.056;2022-08-04T17:09:12;6.00;;;5.25;;
62687;SDS011;48752;51.056;17.056;2022-08-04T17:11:39;6.22;;;5.00;;
62687;SDS011;48752;51.056;17.056;2022-08-04T17:14:05;5.72;;;4.88;;
62687;SDS011;48752;51.056;17.056;2022-08-04T17:16:33;7.78;;;4.80;;
62687;SDS011;48752;51.056;17.056;2022-08-04T17:19:00;6.05;;;5.45;;
62687;SDS011;48752;51.056;17.056;2022-08-04T17:21:27;6.35;;;5.05;;
62687;SDS011;48752;51.056;17.056;2022-08-04T17:23:55;10.15;;;5.22;;
62687;SDS011;48752;51.056;17.056;2022-08-04T17:26:32;6.03;;;5.53;;
62687;SDS011;48752;51.056;17.056;2022-08-04T17:28:59;7.90;;;5.03;;
62687;SDS011;48752;51.056;17.056;2022-08-04T17:31:26;6.72;;;5.28;;
62687;SDS011;48752;51.056;17.056;2022-08-04T17:33:54;5.35;;;4.82;;
62687;SDS011;48752;51.056;17.056;2022-08-04T17:36:24;5.38;;;4.80;;
62687;SDS011;48752;51.056;17.056;2022-08-04T17:38:55;5.75;;;5.03;;
62687;SDS011;48752;51.056;17.056;2022-08-04T17:41:23;5.82;;;5.22;;
62687;SDS011;48752;51.056;17.056;2022-08-04T17:43:54;5.68;;;4.72;;
62687;SDS011;48752;51.056;17.056;2022-08-04T17:46:22;5.90;;;5.40;;
62687;SDS011;48752;51.056;17.056;2022-08-04T17:48:55;8.48;;;5.28;;
62687;SDS011;48752;51.056;17.056;2022-08-04T17:51:35;7.82;;;4.88;;
62687;SDS011;48752;51.056;17.056;2022-08-04T17:54:06;6.78;;;4.78;;
62687;SDS011;48752;51.056;17.056;2022-08-04T17:56:43;9.40;;;4.97;;
62687;SDS011;48752;51.056;17.056;2022-08-04T17:59:14;7.78;;;5.00;;
62687;SDS011;48752;51.056;17.056;2022-08-04T18:12:12;8.05;;;5.22;;
62687;SDS011;48752;51.056;17.056;2022-08-04T18:14:55;6.13;;;5.22;;
62687;SDS011;48752;51.056;17.056;2022-08-04T18:17:38;7.55;;;5.25;;
62687;SDS011;48752;51.056;17.056;2022-08-04T18:20:10;8.82;;;5.53;;
62687;SDS011;48752;51.056;17.056;2022-08-04T18:22:39;7.05;;;5.28;;
62687;SDS011;48752;51.056;17.056;2022-08-04T18:25:08;8.02;;;5.60;;
62687;SDS011;48752;51.056;17.056;2022-08-04T18:27:44;5.53;;;5.03;;
62687;SDS011;48752;51.056;17.056;2022-08-04T18:30:14;5.68;;;5.18;;
62687;SDS011;48752;51.056;17.056;2022-08-04T18:32:40;7.43;;;5.47;;
62687;SDS011;48752;51.056;17.056;2022-08-04T18:35:06;6.82;;;5.57;;
62687;SDS011;48752;51.056;17.056;2022-08-04T18:37:32;9.13;;;5.35;;
62687;SDS011;48752;51.056;17.056;2022-08-04T18:39:58;8.20;;;5.78;;
62687;SDS011;48752;51.056;17.056;2022-08-04T18:42:23;8.13;;;5.55;;
62687;SDS011;48752;51.056;17.056;2022-08-04T18:44:51;6.22;;;5.22;;
62687;SDS011;48752;51.056;17.056;2022-08-04T18:47:19;6.32;;;5.78;;
62687;SDS011;48752;51.056;17.056;2022-08-04T18:49:46;5.68;;;5.18;;
62687;SDS011;48752;51.056;17.056;2022-08-04T18:52:11;7.82;;;5.25;;
62687;SDS011;48752;51.056;17.056;2022-08-04T18:54:37;6.97;;;5.45;;
62687;SDS011;48752;51.056;17.056;2022-08-04T18:57:02;8.15;;;6.57;;
62687;SDS011;48752;51.056;17.056;2022-08-04T18:59:28;8.63;;;5.88;;
62687;SDS011;48752;51.056;17.056;2022-08-04T19:01:53;6.57;;;5.63;;
62687;SDS011;48752;51.056;17.056;2022-08-04T19:04:18;6.95;;;6.05;;
62687;SDS011;48752;51.056;17.056;2022-08-04T19:06:44;8.73;;;6.13;;
62687;SDS011;48752;51.056;17.056;2022-08-04T19:09:09;6.35;;;5.22;;
62687;SDS011;48752;51.056;17.056;2022-08-04T19:11:35;9.70;;;6.00;;
62687;SDS011;48752;51.056;17.056;2022-08-04T19:14:01;6.38;;;5.78;;
62687;SDS011;48752;51.056;17.056;2022-08-04T19:16:28;6.88;;;5.95;;
62687;SDS011;48752;51.056;17.056;2022-08-04T19:18:57;9.40;;;6.40;;
62687;SDS011;48752;51.056;17.056;2022-08-04T19:21:28;9.52;;;5.65;;
62687;SDS011;48752;51.056;17.056;2022-08-04T19:23:53;7.32;;;5.40;;
62687;SDS011;48752;51.056;17.056;2022-08-04T19:26:19;6.93;;;6.22;;
62687;SDS011;48752;51.056;17.056;2022-08-04T19:28:46;12.20;;;6.70;;
62687;SDS011;48752;51.056;17.056;2022-08-04T19:31:12;12.60;;;7.82;;
62687;SDS011;48752;51.056;17.056;2022-08-04T19:33:38;12.23;;;7.50;;
62687;SDS011;48752;51.056;17.056;2022-08-04T19:36:04;9.27;;;6.47;;
62687;SDS011;48752;51.056;17.056;2022-08-04T19:38:30;7.35;;;5.53;;
62687;SDS011;48752;51.056;17.056;2022-08-04T19:40:56;13.98;;;6.45;;
62687;SDS011;48752;51.056;17.056;2022-08-04T19:43:21;8.75;;;5.82;;